»·PEaware :: SWA425 KSNA-KPHX

SWA425 :: KSNA-KPHX

FLIGHT INFORMATION

Flight Status: Arrived
Operator:
Southwest Airlines
More flights by this operator :: More flights under this callsign
Pilot: Brice B. (24277)
Aircraft: BOEING 737-800
(B738)
More flights by this aircraft type
Origin: KSNA John Wayne-Orange Co
United States
Destination: KPHX Phoenix Sky Harbor Intl
United States
More flights between these airports :: More routes between these airports
Route: STAYY3 CNERY BLH HYDRR1
File this flight plan on PilotEdge
Remarks:
Altitude:
(Current/Filed)
33,000ft
Speed:
(Current/Filed)
520kts
Departed: 28-Jul-20 04:59 PM
Arrived: 28-Jul-20 05:54 PM
Distance/Time
Traveled:
294nm/0:55
Distance/Time
To Go:
Arrived

Flight Plot

Page will automatically refresh every two minutes.


Map Options




Map Legend


Flown Route
Filed Route
Departure Airport
Arrival Airport
Navaid (VOR, NDB)
Fix

Horizontal Profiles

Position Reports

Time Latitude Longitude Heading Altitude Ground
Speed
28-Jul-20 16:33 33.675729 -117.864664 118 66ft 0kts
28-Jul-20 16:34 33.675729 -117.864664 118 66ft 0kts
28-Jul-20 16:35 33.675729 -117.864664 118 66ft 0kts
28-Jul-20 16:36 33.675729 -117.864664 118 66ft 0kts
28-Jul-20 16:37 33.675729 -117.864664 118 66ft 0kts
28-Jul-20 16:38 33.675729 -117.864664 118 66ft 0kts
28-Jul-20 16:39 33.675729 -117.864664 118 66ft 0kts
28-Jul-20 16:40 33.675729 -117.864664 118 66ft 0kts
28-Jul-20 16:41 33.675729 -117.864664 118 66ft 0kts
28-Jul-20 16:42 33.675729 -117.864664 118 66ft 0kts
28-Jul-20 16:43 33.675729 -117.864664 118 66ft 0kts
28-Jul-20 16:44 33.675729 -117.864664 118 66ft 0kts
28-Jul-20 16:45 33.675729 -117.864664 118 66ft 0kts
28-Jul-20 16:46 33.675729 -117.864664 118 66ft 0kts
28-Jul-20 16:47 33.675729 -117.864664 118 66ft 0kts
28-Jul-20 16:48 33.675729 -117.864664 118 66ft 0kts
28-Jul-20 16:49 33.675729 -117.864664 118 66ft 0kts
28-Jul-20 16:50 33.675762 -117.864738 117 66ft 2kts
28-Jul-20 16:51 33.675875 -117.865338 53 66ft 2kts
28-Jul-20 16:52 33.675733 -117.865470 27 66ft 0kts
28-Jul-20 16:53 33.675733 -117.865470 27 66ft 0kts
28-Jul-20 16:54 33.675733 -117.865470 27 66ft 0kts
28-Jul-20 16:55 33.676952 -117.864683 27 66ft 13kts
28-Jul-20 16:56 33.680029 -117.862735 20 66ft 9kts
28-Jul-20 16:57 33.681441 -117.864866 295 66ft 8kts
28-Jul-20 16:58 33.670696 -117.872098 209 110ft 158kts
28-Jul-20 16:59 33.628957 -117.888765 193 2636ft 195kts
28-Jul-20 17:00 33.565175 -117.897582 155 5343ft 269kts
28-Jul-20 17:01 33.505279 -117.843181 130 9255ft 281kts
28-Jul-20 17:02 33.476867 -117.749485 88 11566ft 342kts
28-Jul-20 17:03 33.511601 -117.638740 60 12979ft 363kts
28-Jul-20 17:04 33.562579 -117.532372 72 14968ft 376kts
28-Jul-20 17:05 33.562493 -117.407986 108 17546ft 384kts
28-Jul-20 17:06 33.524843 -117.285538 118 19911ft 397kts
28-Jul-20 17:07 33.506747 -117.152073 95 22044ft 421kts
28-Jul-20 17:08 33.501632 -117.009240 94 23880ft 438kts
28-Jul-20 17:09 33.497672 -116.860494 92 25500ft 455kts
28-Jul-20 17:10 33.495699 -116.706439 90 27018ft 469kts
28-Jul-20 17:12 33.494026 -116.548054 90 28441ft 481kts
28-Jul-20 17:13 33.491919 -116.386047 90 29921ft 489kts
28-Jul-20 17:14 33.489362 -116.224060 91 31659ft 486kts
28-Jul-20 17:15 33.488683 -116.062521 83 32714ft 490kts
28-Jul-20 17:16 33.523771 -115.906170 69 32716ft 484kts
28-Jul-20 17:17 33.568267 -115.753660 69 32716ft 485kts
28-Jul-20 17:18 33.608772 -115.599764 82 32715ft 486kts
28-Jul-20 17:19 33.612357 -115.437716 90 32716ft 487kts
28-Jul-20 17:20 33.609919 -115.275253 91 32738ft 486kts
28-Jul-20 17:21 33.606262 -115.113139 91 32752ft 486kts
28-Jul-20 17:22 33.602111 -114.951555 91 32752ft 482kts
28-Jul-20 17:23 33.595919 -114.790999 98 32751ft 481kts
28-Jul-20 17:24 33.570019 -114.633714 102 32752ft 480kts
28-Jul-20 17:25 33.540558 -114.476895 103 32018ft 490kts
28-Jul-20 17:26 33.510455 -114.321330 104 28645ft 470kts
28-Jul-20 17:27 33.481195 -114.171946 104 26112ft 453kts
28-Jul-20 17:28 33.452769 -114.029408 105 24761ft 423kts
28-Jul-20 17:29 33.424850 -113.892114 105 24760ft 432kts
28-Jul-20 17:29 33.401373 -113.775714 105 24762ft 432kts
28-Jul-20 17:31 33.368444 -113.612615 105 24890ft 432kts
28-Jul-20 17:32 33.340160 -113.473242 105 25000ft 432kts
28-Jul-20 17:32 33.319086 -113.356252 102 25000ft 432kts
28-Jul-20 17:34 33.291491 -113.191914 101 25000ft 433kts
28-Jul-20 17:34 33.277718 -113.074077 94 24993ft 414kts
28-Jul-20 17:35 33.278162 -112.939912 89 22873ft 398kts
28-Jul-20 17:36 33.281968 -112.810721 84 19676ft 382kts
28-Jul-20 17:37 33.293191 -112.687503 82 16570ft 370kts
28-Jul-20 17:38 33.303939 -112.572648 82 15121ft 332kts
28-Jul-20 17:39 33.313946 -112.464782 82 13677ft 324kts
28-Jul-20 17:40 33.323800 -112.357558 83 11975ft 323kts
28-Jul-20 17:41 33.333321 -112.251760 83 10326ft 311kts
28-Jul-20 17:42 33.341921 -112.156784 83 9419ft 262kts
28-Jul-20 17:43 33.347749 -112.073657 90 8800ft 244kts
28-Jul-20 17:44 33.345916 -111.993208 91 7917ft 240kts
28-Jul-20 17:45 33.343798 -111.913494 91 7028ft 237kts
28-Jul-20 17:46 33.341653 -111.834999 90 6153ft 235kts
28-Jul-20 17:47 33.386495 -111.797941 0 5154ft 225kts
28-Jul-20 17:48 33.445017 -111.808316 300 4094ft 204kts
28-Jul-20 17:49 33.426372 -111.864166 265 3229ft 196kts
28-Jul-20 17:50 33.428540 -111.927593 269 2351ft 171kts
28-Jul-20 17:51 33.428826 -111.979309 271 1523ft 149kts
28-Jul-20 17:52 33.428864 -112.021840 270 1119ft 48kts
28-Jul-20 17:53 33.430410 -112.025467 1 1118ft 10kts
28-Jul-20 17:54 33.432137 -112.025022 79 1119ft 5kts
28-Jul-20 17:55 33.432894 -112.022283 90 1119ft 15kts
28-Jul-20 17:56 33.432887 -112.016960 90 1122ft 14kts
28-Jul-20 17:57 33.432888 -112.012535 90 1127ft 16kts
28-Jul-20 17:58 33.432880 -112.006832 90 1129ft 17kts
28-Jul-20 17:59 33.432833 -112.000898 89 1128ft 15kts
28-Jul-20 18:00 33.433369 -111.999429 1 1128ft 2kts
28-Jul-20 18:01 33.433416 -111.999428 1 1128ft 0kts

Navigation Log

Ident Type
Flight plan parsing failed, navigation log unavailable